Time;durP1;ratioP1;P1;durP2;ratioP2;P2;SDS_P1;SDS_P2;PMS_P1;PMS_P2;Temp;Humidity;BMP_temperature;BMP_pressure;BME280_temperature;BME280_humidity;BME280_pressure;Samples;Min_cycle;Max_cycle;Signal;HPM_P1;HPM_P2
2021/12/24 00:00:54;;;;;;;142.80;45.17;;;;;;;;;;5001601;28;20405;-59
2021/12/24 00:03:20;;;;;;;138.52;45.60;;;;;;;;;;5001092;28;20389;-59
2021/12/24 00:05:46;;;;;;;146.57;43.78;;;;;;;;;;5003107;28;20042;-58
2021/12/24 00:08:12;;;;;;;130.18;43.63;;;;;;;;;;5000081;28;20664;-59
2021/12/24 00:10:39;;;;;;;155.93;45.28;;;;;;;;;;5002153;28;20492;-57
2021/12/24 00:13:11;;;;;;;140.40;44.20;;;;;;;;;;4997675;28;20065;-56
2021/12/24 00:15:55;;;;;;;153.27;46.00;;;;;;;;;;5003003;28;20381;-57
2021/12/24 00:37:05;;;;;;;147.02;44.78;;;;;;;;;;5005407;28;20084;-57
2021/12/24 00:39:31;;;;;;;163.10;47.15;;;6.80;99.90;;;;;;5006084;28;20392;-57
2021/12/24 00:41:57;;;;;;;170.40;46.53;;;6.80;99.90;;;;;;5005823;28;20145;-58
2021/12/24 00:44:23;;;;;;;149.10;45.80;;;6.80;99.90;;;;;;5006878;28;20069;-57
2021/12/24 00:46:48;;;;;;;142.23;44.35;;;6.80;99.90;;;;;;5006226;28;20077;-56
2021/12/24 00:49:14;;;;;;;170.40;46.17;;;6.90;99.90;;;;;;5010441;28;20034;-57
2021/12/24 00:57:08;;;;;;;151.35;42.83;;;6.90;99.90;;;;;;5013682;28;20388;-58
2021/12/24 00:59:33;;;;;;;124.32;42.38;;;6.90;99.90;;;;;;5009256;28;20041;-57
2021/12/24 01:02:03;;;;;;;125.05;41.63;;;6.90;99.90;;;;;;5007793;28;20373;-58
2021/12/24 01:04:30;;;;;;;117.03;41.05;;;6.90;99.90;;;;;;5010427;28;20472;-57
2021/12/24 01:06:55;;;;;;;134.38;42.13;;;6.90;99.90;;;;;;5009692;28;20045;-57
2021/12/24 01:09:21;;;;;;;132.60;41.88;;;6.90;99.90;;;;;;5010613;28;20492;-58
2021/12/24 01:11:47;;;;;;;124.30;42.63;;;6.90;99.90;;;;;;5011026;28;20080;-57
2021/12/24 01:14:12;;;;;;;120.45;40.47;;;6.90;99.90;;;;;;5009583;28;20096;-58
2021/12/24 01:16:46;;;;;;;141.43;40.97;;;6.90;99.90;;;;;;5011891;28;20223;-58
2021/12/24 01:19:20;;;;;;;128.70;40.50;;;7.00;99.90;;;;;;5011905;28;20353;-57
2021/12/24 01:24:18;;;;;;;108.32;39.08;;;7.00;99.90;;;;;;5009518;28;20137;-56
2021/12/24 01:43:06;;;;;;;105.38;38.50;;;7.10;99.90;;;;;;4987929;28;20096;-58
2021/12/24 01:45:34;;;;;;;103.68;38.17;;;7.10;99.90;;;;;;5011358;28;20057;-57
2021/12/24 01:48:06;;;;;;;96.60;36.45;;;7.20;99.90;;;;;;5010433;28;20052;-58
2021/12/24 01:50:34;;;;;;;91.93;36.50;;;7.20;99.90;;;;;;5011792;28;20049;-58
2021/12/24 01:53:01;;;;;;;;;;;7.20;99.90;;;;;;5011678;28;20450;-57
2021/12/24 01:55:28;;;;;;;80.20;33.47;;;7.30;99.90;;;;;;5009631;28;19922;-58
2021/12/24 01:57:53;;;;;;;81.93;33.88;;;7.30;99.90;;;;;;5007522;28;20137;-57
2021/12/24 02:00:26;;;;;;;76.32;31.25;;;7.40;99.90;;;;;;5010529;28;20155;-58
2021/12/24 02:02:52;;;;;;;65.68;30.95;;;7.50;99.90;;;;;;5010957;28;20042;-58
2021/12/24 02:05:18;;;;;;;70.43;31.00;;;7.50;99.90;;;;;;5010695;28;20555;-57
2021/12/24 02:07:44;;;;;;;71.55;31.92;;;7.50;99.90;;;;;;4993409;28;20488;-57
2021/12/24 02:10:13;;;;;;;75.03;31.50;;;7.50;99.90;;;;;;5008359;28;20129;-58
2021/12/24 02:12:39;;;;;;;73.55;30.98;;;7.60;99.90;;;;;;5006775;28;20376;-57
2021/12/24 02:15:11;;;;;;;67.53;31.13;;;7.60;99.90;;;;;;5003285;28;20037;-57
2021/12/24 02:17:59;;;;;;;67.40;30.10;;;7.70;99.90;;;;;;4990734;28;20038;-57
2021/12/24 02:28:42;;;;;;;65.78;29.67;;;7.90;99.90;;;;;;5009641;28;20086;-57
2021/12/24 02:31:12;;;;;;;62.80;29.02;;;7.80;99.90;;;;;;5008912;28;20404;-58
2021/12/24 02:33:38;;;;;;;69.80;30.15;;;7.90;99.90;;;;;;5009924;28;22219;-57
2021/12/24 02:36:05;;;;;;;71.32;30.67;;;7.90;99.90;;;;;;5008670;28;20168;-58
2021/12/24 02:38:31;;;;;;;66.35;27.77;;;8.00;99.90;;;;;;5012180;28;20046;-58
2021/12/24 02:40:57;;;;;;;64.90;29.13;;;8.00;99.90;;;;;;5005498;28;20064;-57
2021/12/24 02:43:24;;;;;;;57.75;27.73;;;8.10;99.90;;;;;;5010996;28;20378;-57
2021/12/24 02:45:54;;;;;;;62.78;28.05;;;;;;;;;;5007733;28;20133;-57
2021/12/24 02:56:27;;;;;;;68.70;27.05;;;;;;;;;;5007385;28;20046;-58
2021/12/24 02:58:53;;;;;;;50.45;23.83;;;;;;;;;;5010683;28;20111;-56
2021/12/24 03:01:22;;;;;;;62.38;25.00;;;;;;;;;;5010098;28;20070;-57
2021/12/24 03:03:48;;;;;;;46.80;21.63;;;;;;;;;;5009682;28;20129;-57
2021/12/24 03:06:15;;;;;;;45.08;22.35;;;;;;;;;;5011662;28;20042;-57
2021/12/24 03:08:41;;;;;;;49.70;21.45;;;;;;;;;;5009194;28;20437;-57
2021/12/24 03:11:07;;;;;;;52.60;22.40;;;;;;;;;;4989116;28;20128;-58
2021/12/24 03:13:35;;;;;;;48.08;22.17;;;;;;;;;;5009114;28;20049;-57
2021/12/24 03:16:01;;;;;;;37.97;20.42;;;;;;;;;;5008879;28;20085;-58
2021/12/24 03:18:30;;;;;;;54.15;21.92;;;;;;;;;;5007581;28;20460;-58
2021/12/24 03:21:00;;;;;;;41.75;18.55;;;8.20;99.90;;;;;;5010772;28;20492;-57
2021/12/24 03:26:06;;;;;;;39.92;18.45;;;8.30;99.90;;;;;;5006751;28;20049;-58
2021/12/24 03:28:32;;;;;;;35.53;18.38;;;8.30;99.90;;;;;;5009119;28;20473;-57
2021/12/24 03:30:57;;;;;;;35.40;17.95;;;8.30;99.90;;;;;;5008448;28;20050;-57
2021/12/24 03:33:23;;;;;;;34.72;16.98;;;8.30;99.90;;;;;;5007903;28;20050;-57
2021/12/24 03:35:49;;;;;;;33.63;17.17;;;8.30;99.90;;;;;;5003320;28;20405;-57
2021/12/24 03:38:15;;;;;;;30.35;15.73;;;8.30;99.90;;;;;;5006342;28;20116;-58
2021/12/24 03:40:40;;;;;;;30.92;16.27;;;8.30;99.90;;;;;;5006132;28;20543;-58
2021/12/24 03:43:06;;;;;;;31.25;16.10;;;8.40;99.90;;;;;;5006499;28;20045;-57
2021/12/24 03:45:42;;;;;;;27.48;14.68;;;8.30;99.90;;;;;;5008062;28;20424;-57
2021/12/24 03:48:18;;;;;;;28.65;14.90;;;8.30;99.90;;;;;;5008412;28;20052;-57
2021/12/24 03:50:56;;;;;;;26.63;14.25;;;8.30;99.90;;;;;;5008913;28;20107;-56
2021/12/24 03:56:05;;;;;;;24.48;14.27;;;8.40;99.90;;;;;;5007723;28;20125;-57
2021/12/24 03:58:31;;;;;;;33.33;17.08;;;8.40;99.90;;;;;;5010229;28;20124;-56
2021/12/24 04:00:57;;;;;;;34.50;18.15;;;8.40;99.90;;;;;;5009729;28;20056;-58
2021/12/24 04:03:23;;;;;;;34.47;18.58;;;8.40;99.90;;;;;;5008543;28;20068;-58
2021/12/24 04:05:48;;;;;;;37.10;18.80;;;8.40;99.90;;;;;;5008035;28;20709;-57
2021/12/24 04:08:14;;;;;;;45.78;21.45;;;8.40;99.90;;;;;;5008166;28;20118;-57
2021/12/24 04:10:40;;;;;;;43.13;21.45;;;8.40;99.90;;;;;;5005484;28;20058;-57
2021/12/24 04:13:11;;;;;;;45.70;22.08;;;8.40;99.90;;;;;;5001471;28;20531;-57
2021/12/24 04:15:38;;;;;;;58.75;25.05;;;8.40;99.90;;;;;;5003748;28;20100;-56
2021/12/24 04:18:17;;;;;;;54.72;23.48;;;8.50;99.90;;;;;;5006661;28;20040;-58
2021/12/24 04:26:11;;;;;;;51.45;27.05;;;8.40;99.90;;;;;;5002146;28;20246;-57
2021/12/24 04:28:37;;;;;;;55.47;26.02;;;8.50;99.90;;;;;;5007739;28;20197;-57
2021/12/24 04:31:03;;;;;;;57.83;28.50;;;8.50;99.90;;;;;;5004599;28;21584;-57
2021/12/24 04:33:34;;;;;;;64.28;28.52;;;8.50;99.90;;;;;;5009552;28;20049;-57
2021/12/24 04:36:20;;;;;;;65.75;30.60;;;8.50;99.90;;;;;;5007454;28;20042;-58
2021/12/24 04:39:06;;;;;;;70.32;29.17;;;8.50;99.90;;;;;;5009363;28;20042;-58
2021/12/24 04:52:50;;;;;;;66.35;29.30;;;8.40;99.90;;;;;;5007826;28;20088;-58
2021/12/24 05:03:31;;;;;;;69.30;30.63;;;8.40;99.90;;;;;;5006406;28;20120;-58
2021/12/24 05:06:12;;;;;;;71.25;31.48;;;8.40;99.90;;;;;;5007102;28;20041;-57
2021/12/24 05:08:49;;;;;;;63.15;30.00;;;8.40;99.90;;;;;;5009354;28;20060;-58
2021/12/24 05:11:16;;;;;;;66.28;29.35;;;8.40;99.90;;;;;;5006279;28;20057;-58
2021/12/24 05:13:42;;;;;;;72.40;31.35;;;8.40;99.90;;;;;;5007526;28;20041;-57
2021/12/24 05:16:21;;;;;;;65.20;30.67;;;8.40;99.90;;;;;;5006062;28;20184;-58
2021/12/24 05:21:32;;;;;;;71.53;32.40;;;8.40;99.90;;;;;;5012130;28;20054;-57
2021/12/24 05:21:54;;;;;;;75.20;30.50;;;8.40;99.90;;;;;;5009098;28;20068;-57
2021/12/24 05:24:22;;;;;;;76.63;31.60;;;8.40;99.90;;;;;;5009858;28;20046;-58
2021/12/24 05:26:51;;;;;;;74.20;30.60;;;8.40;99.90;;;;;;5012650;28;20048;-58
2021/12/24 05:29:17;;;;;;;72.53;31.23;;;8.50;99.90;;;;;;5006841;28;20045;-58
2021/12/24 05:31:45;;;;;;;85.57;32.30;;;8.50;99.90;;;;;;5012293;28;20046;-58
2021/12/24 05:34:11;;;;;;;75.10;30.95;;;8.40;99.90;;;;;;5011189;28;20050;-57
2021/12/24 05:36:37;;;;;;;71.22;29.85;;;8.50;99.90;;;;;;5009497;28;20046;-57
2021/12/24 05:39:04;;;;;;;68.45;29.75;;;8.50;99.90;;;;;;5011404;28;20038;-58
2021/12/24 05:41:30;;;;;;;70.63;29.67;;;8.50;99.90;;;;;;5011757;28;20515;-58
2021/12/24 05:43:55;;;;;;;67.63;28.35;;;8.50;99.90;;;;;;5007156;28;20304;-58
2021/12/24 05:46:21;;;;;;;66.38;27.92;;;8.50;99.90;;;;;;5011623;28;20074;-58
2021/12/24 05:48:47;;;;;;;57.88;27.08;;;8.50;99.90;;;;;;5011265;28;20046;-58
2021/12/24 05:51:12;;;;;;;68.60;28.67;;;8.50;99.90;;;;;;5008902;28;20038;-58
2021/12/24 05:53:38;;;;;;;65.75;29.83;;;8.50;99.90;;;;;;5008433;28;20489;-58
2021/12/24 05:56:04;;;;;;;69.72;30.00;;;8.50;99.90;;;;;;5013449;28;20050;-57
2021/12/24 05:58:30;;;;;;;61.95;28.55;;;8.50;99.90;;;;;;5007891;28;20061;-58
2021/12/24 06:00:57;;;;;;;63.80;27.10;;;8.50;99.90;;;;;;5010655;28;20073;-58
2021/12/24 06:03:23;;;;;;;75.15;28.05;;;8.50;99.90;;;;;;5011278;28;20049;-58
2021/12/24 06:05:49;;;;;;;58.22;27.35;;;8.50;99.90;;;;;;5011110;28;20045;-58
2021/12/24 06:08:14;;;;;;;56.60;27.35;;;8.50;99.90;;;;;;5006322;28;20420;-57
2021/12/24 06:10:41;;;;;;;61.30;27.40;;;8.50;99.90;;;;;;5007370;28;20497;-57
2021/12/24 06:13:07;;;;;;;61.45;26.55;;;8.50;99.90;;;;;;4998894;28;20056;-58
2021/12/24 06:15:41;;;;;;;67.88;27.63;;;8.50;99.90;;;;;;5004566;28;20087;-58
2021/12/24 06:18:19;;;;;;;55.97;26.83;;;8.50;99.90;;;;;;5005156;28;20136;-57
2021/12/24 06:20:44;;;;;;;64.15;26.77;;;8.50;99.90;;;;;;5004308;28;20492;-57
2021/12/24 06:23:10;;;;;;;58.53;25.30;;;8.50;99.90;;;;;;5002458;28;20053;-57
2021/12/24 06:25:36;;;;;;;56.47;25.50;;;8.50;99.90;;;;;;5006111;28;20149;-57
2021/12/24 06:28:02;;;;;;;60.08;25.30;;;8.50;99.90;;;;;;5004543;28;20412;-57
2021/12/24 06:30:29;;;;;;;52.03;24.23;;;8.50;99.90;;;;;;5003620;28;20046;-56
2021/12/24 06:33:00;;;;;;;62.55;25.65;;;8.50;99.90;;;;;;5005752;28;20132;-57
2021/12/24 06:35:26;;;;;;;47.83;24.83;;;8.50;99.90;;;;;;5005769;28;20092;-57
2021/12/24 06:37:53;;;;;;;47.63;23.92;;;8.50;99.90;;;;;;5004872;28;20459;-57
2021/12/24 06:40:19;;;;;;;46.50;23.25;;;8.50;99.90;;;;;;5004686;28;20046;-57
2021/12/24 06:42:45;;;;;;;48.38;23.90;;;8.50;99.90;;;;;;5004776;28;20108;-57
2021/12/24 06:45:11;;;;;;;56.35;23.95;;;8.40;99.90;;;;;;5004964;28;20133;-58
2021/12/24 06:47:37;;;;;;;56.35;23.30;;;8.40;99.90;;;;;;5005202;28;20074;-58
2021/12/24 06:50:04;;;;;;;50.92;22.25;;;8.50;99.90;;;;;;5006506;28;20034;-57
2021/12/24 06:52:30;;;;;;;50.45;23.38;;;8.40;99.90;;;;;;5004259;28;20053;-56
2021/12/24 06:54:55;;;;;;;45.90;21.48;;;8.50;99.90;;;;;;5006048;28;20576;-58
2021/12/24 06:57:23;;;;;;;45.50;20.98;;;8.50;99.90;;;;;;5004558;28;20511;-58
2021/12/24 06:59:49;;;;;;;43.67;21.10;;;8.50;99.90;;;;;;5002901;28;20144;-57
2021/12/24 07:02:14;;;;;;;45.90;20.92;;;8.40;99.90;;;;;;5006342;28;20156;-58
2021/12/24 07:04:40;;;;;;;44.50;21.58;;;8.40;99.90;;;;;;5004025;28;20042;-58
2021/12/24 07:07:06;;;;;;;47.60;20.73;;;8.40;99.90;;;;;;5004109;28;20069;-58
2021/12/24 07:09:31;;;;;;;57.17;20.80;;;8.40;99.90;;;;;;5006673;28;20485;-58
2021/12/24 07:11:57;;;;;;;46.80;19.40;;;8.30;99.90;;;;;;5010704;28;20045;-57
2021/12/24 07:14:23;;;;;;;40.65;19.42;;;8.40;99.90;;;;;;5008606;28;20057;-57
2021/12/24 07:16:50;;;;;;;39.70;19.05;;;8.40;99.90;;;;;;5010319;28;20057;-58
2021/12/24 07:19:15;;;;;;;47.15;19.85;;;8.30;99.90;;;;;;5009675;28;20034;-58
2021/12/24 07:21:41;;;;;;;51.70;20.40;;;8.30;99.90;;;;;;5007648;28;20049;-57
2021/12/24 07:24:08;;;;;;;49.58;18.88;;;8.30;99.90;;;;;;5009636;28;20041;-58
2021/12/24 07:26:34;;;;;;;49.92;19.42;;;8.30;99.90;;;;;;5008356;28;20129;-57
2021/12/24 07:29:00;;;;;;;44.90;18.33;;;8.30;99.90;;;;;;5006019;28;20042;-58
2021/12/24 07:31:26;;;;;;;35.13;17.45;;;8.30;99.90;;;;;;5009143;28;20100;-58
2021/12/24 07:33:52;;;;;;;43.10;18.33;;;8.20;99.90;;;;;;5006516;28;20404;-58
2021/12/24 07:36:18;;;;;;;39.13;17.02;;;8.20;99.90;;;;;;5009762;28;20046;-58
2021/12/24 07:38:43;;;;;;;52.90;18.63;;;8.20;99.90;;;;;;5008518;28;20447;-57
2021/12/24 07:41:09;;;;;;;47.13;19.70;;;8.20;99.90;;;;;;5009072;28;20045;-58
2021/12/24 07:43:35;;;;;;;53.30;20.25;;;8.20;99.90;;;;;;5008005;28;20057;-58
2021/12/24 07:46:01;;;;;;;57.55;20.63;;;8.20;99.90;;;;;;5008710;28;20181;-57
2021/12/24 07:48:31;;;;;;;40.47;17.83;;;8.20;99.90;;;;;;5007421;28;20121;-58
2021/12/24 07:53:25;;;;;;;;;;;8.10;99.90;;;;;;5005622;28;20087;-58
2021/12/24 07:55:53;;;;;;;44.80;18.40;;;8.20;99.90;;;;;;5007099;28;20276;-57
2021/12/24 07:58:19;;;;;;;47.58;18.08;;;8.20;99.90;;;;;;5001834;28;20045;-56
2021/12/24 08:00:46;;;;;;;45.28;18.40;;;8.10;99.90;;;;;;4988284;28;20188;-57
2021/12/24 08:03:12;;;;;;;55.50;19.17;;;8.10;99.90;;;;;;5006273;28;20099;-58
2021/12/24 08:05:40;;;;;;;47.13;16.55;;;8.10;99.90;;;;;;5009191;28;20049;-58
2021/12/24 08:08:06;;;;;;;43.88;17.10;;;8.10;99.90;;;;;;5009142;28;20148;-57
2021/12/24 08:10:34;;;;;;;40.78;16.30;;;8.10;99.90;;;;;;5004677;28;20061;-58
2021/12/24 08:13:03;;;;;;;47.15;16.65;;;8.10;99.90;;;;;;5004716;28;20045;-57
2021/12/24 08:15:29;;;;;;;40.30;15.88;;;8.10;99.90;;;;;;4994663;28;20066;-57
2021/12/24 08:17:54;;;;;;;37.90;16.05;;;8.10;99.90;;;;;;4998311;28;20143;-58
2021/12/24 08:20:24;;;;;;;37.97;15.77;;;8.10;99.90;;;;;;4999749;28;20528;-57
2021/12/24 08:22:52;;;;;;;46.95;16.77;;;8.10;99.90;;;;;;5001554;28;20053;-58
2021/12/24 08:25:19;;;;;;;47.80;16.10;;;8.10;99.90;;;;;;5004813;28;20046;-58
2021/12/24 08:27:45;;;;;;;39.53;16.17;;;8.10;99.90;;;;;;5010231;28;20600;-58
2021/12/24 08:30:11;;;;;;;40.35;16.38;;;8.10;99.90;;;;;;5010521;28;20101;-59
2021/12/24 08:32:40;;;;;;;50.28;17.08;;;8.10;99.90;;;;;;5009104;28;20066;-60
2021/12/24 08:35:08;;;;;;;45.63;16.48;;;8.10;99.90;;;;;;4995189;28;20480;-58
2021/12/24 08:37:33;;;;;;;53.72;16.45;;;8.10;99.90;;;;;;5006145;28;20041;-58
2021/12/24 08:39:59;;;;;;;46.67;16.50;;;8.10;99.90;;;;;;5007977;28;20370;-58
2021/12/24 08:42:25;;;;;;;42.17;16.52;;;8.10;99.90;;;;;;5005730;28;20131;-58
2021/12/24 08:44:51;;;;;;;46.85;16.23;;;8.10;99.90;;;;;;5007165;28;20053;-58
2021/12/24 08:47:17;;;;;;;49.78;16.40;;;8.10;99.90;;;;;;5007130;28;20044;-58
2021/12/24 08:49:42;;;;;;;45.10;14.95;;;8.10;99.90;;;;;;5010613;28;20042;-58
2021/12/24 08:52:08;;;;;;;35.08;13.55;;;8.10;99.90;;;;;;5011468;28;20511;-58
2021/12/24 08:54:34;;;;;;;40.65;13.98;;;8.10;99.90;;;;;;5013490;28;20054;-58
2021/12/24 08:56:59;;;;;;;46.97;13.40;;;8.10;99.90;;;;;;5012887;28;20049;-59
2021/12/24 08:59:25;;;;;;;48.25;13.77;;;8.20;99.90;;;;;;5012905;28;20050;-58
2021/12/24 09:01:52;;;;;;;38.30;12.50;;;8.10;99.90;;;;;;5012393;28;20050;-58
2021/12/24 09:04:17;;;;;;;39.65;13.88;;;8.20;99.90;;;;;;5011412;28;20487;-58
2021/12/24 09:06:43;;;;;;;43.58;12.80;;;8.20;99.90;;;;;;5009764;28;20054;-58
2021/12/24 09:09:10;;;;;;;41.40;13.32;;;8.20;99.90;;;;;;5014968;28;20480;-58
2021/12/24 09:11:41;;;;;;;39.95;11.82;;;8.20;99.90;;;;;;5013985;28;20128;-58
2021/12/24 09:14:08;;;;;;;39.35;12.32;;;8.20;99.90;;;;;;5008191;28;20660;-58
2021/12/24 09:16:35;;;;;;;35.03;12.20;;;8.20;99.90;;;;;;5005583;28;20075;-56
2021/12/24 09:19:06;;;;;;;44.67;13.30;;;8.20;99.90;;;;;;5004943;28;20168;-58
2021/12/24 09:21:33;;;;;;;37.33;12.20;;;8.20;99.90;;;;;;5009967;28;20077;-58
2021/12/24 09:24:00;;;;;;;43.17;11.80;;;8.30;99.90;;;;;;5013456;28;20050;-58
2021/12/24 09:26:29;;;;;;;43.08;12.13;;;8.20;99.90;;;;;;5011597;28;20301;-58
2021/12/24 09:28:56;;;;;;;41.58;12.23;;;8.30;99.90;;;;;;5013985;28;20050;-58
2021/12/24 09:31:22;;;;;;;34.20;12.18;;;8.30;99.90;;;;;;5014368;28;20042;-58
2021/12/24 09:33:47;;;;;;;44.55;13.27;;;8.30;99.90;;;;;;5012554;28;20125;-58
2021/12/24 09:36:13;;;;;;;35.58;11.57;;;8.30;99.90;;;;;;5001674;28;20128;-58
2021/12/24 09:38:38;;;;;;;39.47;12.82;;;8.30;99.90;;;;;;5014032;28;20077;-58
2021/12/24 09:41:04;;;;;;;36.85;12.07;;;8.30;99.90;;;;;;5014203;28;20411;-58
2021/12/24 09:43:30;;;;;;;31.60;11.40;;;8.30;99.90;;;;;;5013711;28;20054;-58
2021/12/24 09:45:55;;;;;;;30.85;11.85;;;8.30;99.90;;;;;;5009980;28;20129;-58
2021/12/24 09:48:21;;;;;;;38.97;12.10;;;8.30;99.90;;;;;;5011963;28;20042;-58
2021/12/24 09:50:47;;;;;;;35.65;11.65;;;8.30;99.90;;;;;;5013347;28;20435;-58
2021/12/24 09:53:13;;;;;;;29.58;11.30;;;8.30;99.90;;;;;;5013036;28;20121;-58
2021/12/24 09:55:38;;;;;;;38.20;12.13;;;8.40;99.90;;;;;;4997690;28;20130;-58
2021/12/24 09:58:04;;;;;;;32.95;12.60;;;8.40;99.90;;;;;;5009429;28;20056;-58
2021/12/24 10:00:30;;;;;;;43.42;13.48;;;8.40;99.90;;;;;;5012950;28;20420;-55
2021/12/24 10:02:58;;;;;;;38.60;12.88;;;8.40;99.90;;;;;;5008731;28;20053;-57
2021/12/24 10:05:37;;;;;;;38.15;12.45;;;8.50;99.90;;;;;;5012043;28;20515;-56
2021/12/24 10:08:19;;;;;;;33.55;12.05;;;8.50;99.90;;;;;;5012089;28;20089;-58
2021/12/24 10:10:51;;;;;;;35.65;12.23;;;8.50;99.90;;;;;;5011891;28;20046;-58
2021/12/24 10:13:29;;;;;;;36.25;12.18;;;8.50;99.90;;;;;;5012818;28;20056;-59
2021/12/24 10:16:03;;;;;;;;;;;8.50;99.90;;;;;;5013125;28;20042;-58
2021/12/24 10:18:40;;;;;;;31.73;10.40;;;8.50;99.90;;;;;;5013090;28;19921;-57
2021/12/24 10:21:14;;;;;;;27.63;9.90;;;8.50;99.90;;;;;;5012415;28;20099;-58
2021/12/24 10:23:51;;;;;;;22.63;9.60;;;8.50;99.90;;;;;;5012711;28;20064;-58
2021/12/24 10:26:42;;;;;;;28.10;9.77;;;8.50;99.90;;;;;;5012676;28;20073;-58
2021/12/24 10:29:12;;;;;;;27.17;9.85;;;8.50;99.90;;;;;;5012203;28;20096;-58
2021/12/24 10:31:52;;;;;;;24.80;9.55;;;8.50;99.90;;;;;;5013149;28;20400;-61
2021/12/24 10:34:32;;;;;;;25.50;9.50;;;8.50;99.90;;;;;;5006437;28;20090;-61
2021/12/24 10:37:12;;;;;;;19.20;8.68;;;8.50;99.90;;;;;;5011097;28;20124;-61
2021/12/24 10:39:55;;;;;;;21.33;8.48;;;8.50;99.90;;;;;;5012620;28;20050;-60
2021/12/24 10:42:31;;;;;;;21.15;8.68;;;8.50;99.90;;;;;;4997244;28;20050;-61
2021/12/24 10:44:58;;;;;;;22.90;8.60;;;8.50;99.90;;;;;;4997465;28;20052;-61
2021/12/24 10:47:27;;;;;;;20.17;8.80;;;8.50;99.90;;;;;;5007859;28;20042;-61
2021/12/24 10:50:08;;;;;;;20.52;8.43;;;8.50;99.90;;;;;;5012583;28;20057;-62
2021/12/24 10:53:15;;;;;;;25.52;9.02;;;8.50;99.90;;;;;;5012452;28;20048;-61
2021/12/24 10:55:54;;;;;;;22.50;9.07;;;8.50;99.90;;;;;;5008781;28;20463;-60
2021/12/24 10:58:23;;;;;;;22.85;9.30;;;8.50;99.90;;;;;;5012177;28;20447;-61
2021/12/24 11:00:56;;;;;;;21.95;8.13;;;8.50;99.90;;;;;;5012456;28;20384;-61
2021/12/24 11:03:23;;;;;;;23.77;9.00;;;8.50;99.90;;;;;;5012008;28;20041;-61
2021/12/24 11:06:03;;;;;;;23.42;8.77;;;8.50;99.90;;;;;;5011883;28;20045;-60
2021/12/24 11:08:29;;;;;;;20.95;8.43;;;8.60;99.90;;;;;;5012534;28;20133;-61
2021/12/24 11:10:58;;;;;;;32.33;8.98;;;8.60;99.90;;;;;;5011996;28;20220;-61
2021/12/24 11:13:32;;;;;;;27.05;9.02;;;8.50;99.90;;;;;;5011350;28;20038;-60
2021/12/24 11:16:02;;;;;;;29.38;9.43;;;8.60;99.90;;;;;;4992030;28;20046;-61
2021/12/24 11:18:34;;;;;;;26.30;9.85;;;8.60;99.90;;;;;;5012136;28;20041;-61
2021/12/24 11:21:02;;;;;;;25.15;9.77;;;8.60;99.90;;;;;;5011960;28;20077;-62
2021/12/24 11:23:32;;;;;;;27.23;9.73;;;8.60;99.90;;;;;;5008993;28;20053;-61
2021/12/24 11:26:06;;;;;;;24.80;9.30;;;8.70;99.90;;;;;;5011372;28;20133;-61
2021/12/24 11:28:33;;;;;;;28.98;9.32;;;8.70;99.90;;;;;;5011526;28;20049;-60
2021/12/24 11:31:08;;;;;;;25.80;9.95;;;8.60;99.90;;;;;;5010482;28;20231;-60
2021/12/24 11:33:36;;;;;;;26.45;9.73;;;8.70;99.90;;;;;;5000020;28;20070;-60
2021/12/24 11:36:05;;;;;;;28.67;10.50;;;8.70;99.90;;;;;;5011871;28;20046;-60
2021/12/24 11:38:33;;;;;;;27.30;9.82;;;8.70;99.90;;;;;;5011566;28;20433;-61
2021/12/24 11:41:01;;;;;;;23.58;9.38;;;8.70;99.90;;;;;;5011262;28;20041;-60
2021/12/24 11:43:30;;;;;;;30.05;10.02;;;8.70;99.90;;;;;;5010329;28;20042;-60
2021/12/24 11:46:02;;;;;;;27.20;9.68;;;8.70;99.90;;;;;;4992100;28;20424;-60
2021/12/24 11:48:31;;;;;;;27.80;9.90;;;8.70;99.90;;;;;;5010530;28;20041;-60
2021/12/24 11:51:02;;;;;;;26.70;9.57;;;8.70;99.90;;;;;;5008088;28;20042;-60
2021/12/24 11:53:30;;;;;;;29.58;9.82;;;8.70;99.90;;;;;;5009759;28;20492;-60
2021/12/24 11:56:03;;;;;;;31.33;9.68;;;8.70;99.90;;;;;;5010405;28;20042;-59
2021/12/24 11:58:29;;;;;;;24.92;9.35;;;8.70;99.90;;;;;;5010265;28;20531;-61
2021/12/24 12:00:56;;;;;;;28.73;9.43;;;8.60;99.90;;;;;;5009258;28;20034;-60
2021/12/24 12:03:32;;;;;;;28.43;9.33;;;8.70;99.90;;;;;;5009081;28;20049;-60
2021/12/24 12:05:58;;;;;;;25.55;9.13;;;8.60;99.90;;;;;;5011423;28;20092;-61
2021/12/24 12:08:33;;;;;;;30.23;9.93;;;8.60;99.90;;;;;;5010909;28;20409;-60
2021/12/24 12:11:07;;;;;;;28.15;9.15;;;8.60;99.90;;;;;;5004364;28;20045;-61
2021/12/24 12:13:53;;;;;;;28.02;9.80;;;8.60;99.90;;;;;;5011100;28;20034;-60
2021/12/24 12:16:22;;;;;;;24.52;8.05;;;8.60;99.90;;;;;;5003608;28;20164;-61
2021/12/24 12:19:03;;;;;;;21.25;8.02;;;8.60;99.90;;;;;;5011285;28;20103;-60
2021/12/24 12:21:41;;;;;;;23.65;8.23;;;8.60;99.90;;;;;;5011795;28;20053;-60
2021/12/24 12:26:44;;;;;;;22.08;8.00;;;8.60;99.90;;;;;;5014150;28;20054;-61
2021/12/24 12:29:23;;;;;;;7.10;2.40;;;8.50;99.90;;;;;;4996783;28;20069;-61
2021/12/24 12:32:01;;;;;;;1.20;1.10;;;8.20;99.90;;;;;;5015809;28;20415;-61
2021/12/24 12:34:38;;;;;;;0.70;0.65;;;7.60;99.90;;;;;;5014929;28;20050;-60
2021/12/24 12:37:12;;;;;;;0.93;0.73;;;7.30;99.90;;;;;;5014662;28;20050;-60
2021/12/24 12:39:37;;;;;;;1.27;0.90;;;7.00;99.90;;;;;;5015208;28;20081;-60
2021/12/24 12:42:03;;;;;;;0.90;0.90;;;6.80;99.90;;;;;;5014101;28;20069;-60
2021/12/24 12:44:29;;;;;;;1.10;1.00;;;6.80;99.90;;;;;;5014257;28;20437;-61
2021/12/24 12:47:11;;;;;;;1.25;1.15;;;6.70;99.90;;;;;;5014918;28;20121;-58
2021/12/24 12:49:37;;;;;;;2.05;1.83;;;6.60;99.90;;;;;;5014463;28;20369;-60
2021/12/24 12:52:11;;;;;;;2.03;1.77;;;6.50;99.90;;;;;;5013998;28;20133;-61
2021/12/24 12:54:46;;;;;;;3.95;2.90;;;6.50;99.90;;;;;;5014518;28;20046;-61
2021/12/24 12:57:12;;;;;;;3.22;2.20;;;6.50;99.90;;;;;;5014718;28;20088;-60
2021/12/24 12:59:38;;;;;;;1.70;1.60;;;6.40;99.90;;;;;;5014245;28;20064;-60
2021/12/24 13:02:04;;;;;;;1.63;1.52;;;6.40;99.90;;;;;;5013856;28;20038;-61
2021/12/24 13:04:30;;;;;;;1.70;1.60;;;6.30;99.90;;;;;;5013870;28;20060;-60
2021/12/24 13:06:57;;;;;;;1.80;1.70;;;6.40;99.90;;;;;;5013635;28;20037;-60
2021/12/24 13:09:25;;;;;;;2.03;1.83;;;;;;;;;;5013890;28;20076;-60
2021/12/24 13:11:54;;;;;;;2.30;1.80;;;;;;;;;;5011828;28;20440;-60
2021/12/24 13:14:22;;;;;;;2.38;1.85;;;;;;;;;;5013724;28;20053;-61
2021/12/24 13:17:05;;;;;;;2.20;2.00;;;;;;;;;;5013245;28;20052;-60
2021/12/24 13:19:58;;;;;;;2.80;2.00;;;;;;;;;;5013199;28;20100;-60
2021/12/24 13:22:33;;;;;;;2.03;1.92;;;;;;;;;;5009452;28;20480;-60
2021/12/24 13:25:01;;;;;;;2.35;2.20;;;;;;;;;;5013290;28;20042;-60
2021/12/24 13:27:28;;;;;;;;;;;;;;;;;;5013685;28;20554;-61
2021/12/24 13:30:05;;;;;;;2.13;2.03;;;;;;;;;;5007198;28;20019;-61
2021/12/24 13:32:31;;;;;;;2.38;2.17;;;;;;;;;;5006067;28;20048;-61
2021/12/24 13:34:57;;;;;;;2.88;2.45;;;;;;;;;;5008895;28;20030;-61
2021/12/24 13:37:23;;;;;;;3.58;2.30;;;;;;;;;;5010395;28;20072;-59
2021/12/24 13:39:50;;;;;;;2.80;2.60;;;;;;;;;;4994111;28;20397;-59
2021/12/24 13:42:17;;;;;;;2.80;2.60;;;;;;;;;;5013229;28;20064;-60
2021/12/24 13:44:43;;;;;;;3.05;2.80;;;;;;;;;;5011384;28;20038;-60
2021/12/24 13:47:15;;;;;;;3.10;2.90;;;;;;;;;;5012282;28;20191;-60
2021/12/24 13:50:27;;;;;;;2.58;2.38;;;;;;;;;;5013055;28;20108;-61
2021/12/24 13:55:22;;;;;;;3.08;2.88;;;;;;;;;;5002130;28;20050;-61
2021/12/24 13:57:52;;;;;;;3.97;3.30;;;;;;;;;;5007015;28;20049;-62
2021/12/24 14:00:18;;;;;;;4.07;3.60;;;;;;;;;;5009842;28;20412;-60
2021/12/24 14:02:50;;;;;;;3.38;3.17;;;;;;;;;;5012186;28;20086;-61
2021/12/24 14:05:18;;;;;;;3.80;3.35;;;;;;;;;;5011776;28;20046;-61
2021/12/24 14:07:46;;;;;;;3.90;3.60;;;6.30;99.90;;;;;;5008488;28;20046;-61
2021/12/24 14:10:23;;;;;;;3.70;3.40;;;6.30;99.90;;;;;;5011811;28;20057;-61
2021/12/24 14:12:48;;;;;;;3.85;3.55;;;6.40;99.90;;;;;;5011675;28;20046;-61
2021/12/24 14:15:16;;;;;;;3.90;3.60;;;6.40;99.90;;;;;;5010384;28;20046;-61
2021/12/24 14:20:58;;;;;;;3.72;3.42;;;6.40;99.90;;;;;;5012470;28;20451;-61
2021/12/24 14:23:18;;;;;;;3.65;3.38;;;6.40;99.90;;;;;;5007506;28;20046;-61
2021/12/24 14:25:55;;;;;;;3.60;3.30;;;6.40;99.90;;;;;;5010342;28;20377;-61
2021/12/24 14:28:22;;;;;;;4.13;3.80;;;6.40;99.90;;;;;;5007442;28;20575;-61
2021/12/24 14:30:48;;;;;;;3.58;3.30;;;6.40;99.90;;;;;;5011489;28;20042;-61
2021/12/24 14:33:14;;;;;;;3.95;3.42;;;6.50;99.90;;;;;;5011010;28;20413;-61
2021/12/24 14:35:46;;;;;;;6.05;3.65;;;6.40;99.90;;;;;;5012098;28;20060;-61
2021/12/24 14:38:17;;;;;;;3.28;3.08;;;6.40;99.90;;;;;;5010294;28;20042;-61
2021/12/24 14:40:43;;;;;;;4.38;3.97;;;6.40;99.90;;;;;;5011320;28;20545;-61
2021/12/24 14:43:14;;;;;;;4.03;3.40;;;6.40;99.90;;;;;;5010639;28;20084;-61